Time;durP1;ratioP1;P1;durP2;ratioP2;P2;SDS_P1;SDS_P2;PMS_P1;PMS_P2;Temp;Humidity;BMP_temperature;BMP_pressure;BME280_temperature;BME280_humidity;BME280_pressure;Samples;Min_cycle;Max_cycle;Signal;HPM_P1;HPM_P2
2022/07/28 00:00:20;;;;;;;5.90;1.40;;;;;;;14.97;65.80;101795.59;5099685;27;20039;-86
2022/07/28 00:02:45;;;;;;;4.93;1.57;;;;;;;14.96;65.39;101791.19;5099096;27;20057;-86
2022/07/28 00:05:13;;;;;;;5.10;1.40;;;;;;;14.89;65.60;101785.75;5116380;28;20041;-86
2022/07/28 00:07:39;;;;;;;7.10;1.30;;;;;;;14.85;65.50;101778.22;5116831;28;20054;-86
2022/07/28 00:10:08;;;;;;;5.30;1.47;;;;;;;14.82;65.94;101779.53;5116528;28;20463;-86
2022/07/28 00:12:33;;;;;;;7.60;1.50;;;;;;;14.79;66.19;101784.56;5116034;28;20019;-85
2022/07/28 00:14:59;;;;;;;2.80;1.30;;;;;;;14.76;66.18;101785.84;5116505;28;20088;-86
2022/07/28 00:17:25;;;;;;;3.03;1.00;;;;;;;14.70;66.08;101782.13;5116314;28;20059;-86
2022/07/28 00:19:53;;;;;;;4.72;1.40;;;;;;;14.67;66.02;101784.44;5116504;28;20478;-86
2022/07/28 00:22:21;;;;;;;4.23;1.30;;;;;;;14.61;66.40;101791.63;5134325;28;20531;-86
2022/07/28 00:24:46;;;;;;;2.72;1.25;;;;;;;14.60;67.27;101789.94;5115786;28;20031;-86
2022/07/28 00:27:13;;;;;;;8.82;1.65;;;;;;;14.56;66.86;101788.69;5134443;28;20035;-87
2022/07/28 00:29:41;;;;;;;8.23;1.80;;;;;;;14.49;66.84;101785.16;5115788;28;20463;-86
2022/07/28 00:32:06;;;;;;;9.63;1.45;;;;;;;14.51;67.10;101781.16;5134081;28;20526;-86
2022/07/28 00:34:32;;;;;;;7.80;1.67;;;;;;;14.52;66.98;101774.63;5134795;28;20065;-86
2022/07/28 00:37:00;;;;;;;3.15;1.33;;;;;;;14.55;67.38;101789.72;5116022;28;20019;-86
2022/07/28 00:39:26;;;;;;;4.13;1.25;;;;;;;14.52;66.82;101788.25;5099000;28;20042;-85
2022/07/28 00:41:51;;;;;;;4.63;1.40;;;;;;;14.52;67.36;101780.06;5134419;28;20055;-86
2022/07/28 00:44:17;;;;;;;6.33;1.67;;;;;;;14.52;67.47;101785.53;5134671;28;20031;-86
2022/07/28 00:46:42;;;;;;;3.35;1.17;;;;;;;14.53;66.76;101784.50;5134104;28;20031;-86
2022/07/28 00:49:10;;;;;;;4.77;1.43;;;;;;;14.50;67.29;101782.19;5117946;27;20031;-86
2022/07/28 00:51:36;;;;;;;4.93;1.40;;;;;;;14.52;66.93;101781.97;5138197;27;20027;-86
2022/07/28 00:54:01;;;;;;;5.73;1.50;;;;;;;14.48;66.70;101767.94;5120380;27;20387;-86
2022/07/28 00:56:27;;;;;;;6.53;1.15;;;;;;;14.45;67.23;101764.78;5119820;27;20039;-86
2022/07/28 00:58:52;;;;;;;3.57;1.40;;;;;;;14.34;67.81;101764.44;5119278;27;20034;-86
2022/07/28 01:01:19;;;;;;;6.78;1.70;;;;;;;14.30;67.73;101765.91;5119637;27;20076;-86
2022/07/28 01:03:50;;;;;;;3.85;1.25;;;;;;;14.26;67.95;101775.63;5138175;27;20043;-86
2022/07/28 01:06:44;;;;;;;4.70;1.10;;;;;;;14.24;67.80;101777.72;5138657;27;20027;-86
2022/07/28 01:09:39;;;;;;;3.40;1.42;;;;;;;14.20;67.68;101779.19;5120421;27;20027;-86
2022/07/28 01:12:32;;;;;;;3.88;1.60;;;;;;;14.15;69.15;101768.09;5137573;27;20459;-86
2022/07/28 01:15:13;;;;;;;3.47;1.50;;;;;;;14.14;68.43;101780.06;5137589;27;20411;-86
2022/07/28 01:17:45;;;;;;;3.28;1.83;;;;;;;14.10;68.66;101776.09;5119406;27;20027;-86
2022/07/28 01:20:29;;;;;;;3.90;1.47;;;;;;;14.09;67.94;101775.25;5137622;27;20352;-86
2022/07/28 01:23:31;;;;;;;3.10;1.20;;;;;;;14.05;68.21;101765.81;5137699;27;20019;-85
2022/07/28 01:26:00;;;;;;;9.85;1.85;;;;;;;14.00;69.01;101763.75;5119630;27;20035;-86
2022/07/28 01:28:42;;;;;;;2.50;1.33;;;;;;;13.96;69.33;101767.13;5119383;27;20023;-86
2022/07/28 01:31:09;;;;;;;4.53;1.70;;;;;;;13.89;70.04;101767.13;5137656;27;20467;-86
2022/07/28 01:33:44;;;;;;;7.73;1.60;;;;;;;13.84;70.03;101767.78;5118950;27;20019;-86
2022/07/28 01:36:17;;;;;;;3.28;1.33;;;;;;;13.75;70.26;101763.63;5119664;27;20031;-86
2022/07/28 01:38:45;;;;;;;6.20;1.63;;;;;;;13.71;70.50;101759.66;5137083;27;20130;-86
2022/07/28 01:41:21;;;;;;;4.78;1.40;;;;;;;13.68;70.39;101757.34;5118888;27;20066;-86
2022/07/28 01:43:52;;;;;;;4.78;1.27;;;;;;;13.59;70.60;101751.28;5119269;27;20019;-86
2022/07/28 01:46:19;;;;;;;5.20;1.57;;;;;;;13.54;70.97;101748.38;5137916;27;20031;-86
2022/07/28 01:48:48;;;;;;;4.32;1.50;;;;;;;13.49;71.53;101748.16;5136967;27;20058;-86
2022/07/28 01:51:15;;;;;;;4.13;1.48;;;;;;;13.43;72.20;101749.84;5153083;27;20023;-86
2022/07/28 01:53:43;;;;;;;2.53;1.38;;;;;;;13.43;71.66;101751.75;5137073;27;20054;-85
2022/07/28 01:56:10;;;;;;;6.22;1.35;;;;;;;13.42;72.25;101745.47;5137142;27;20059;-85
2022/07/28 01:58:37;;;;;;;3.53;1.30;;;;;;;13.37;71.91;101739.78;5137217;27;20106;-86
2022/07/28 02:01:07;;;;;;;5.03;1.70;;;;;;;13.30;71.91;101738.94;5136760;27;20031;-86
2022/07/28 02:03:33;;;;;;;4.63;1.55;;;;;;;13.31;72.33;101740.63;5136901;27;20067;-86
2022/07/28 02:06:01;;;;;;;4.13;1.35;;;;;;;13.25;72.24;101738.75;5136608;27;20463;-85
2022/07/28 02:08:29;;;;;;;4.38;1.65;;;;;;;13.26;73.30;101741.25;5118687;27;20066;-86
2022/07/28 02:13:43;;;;;;;3.33;1.80;;;;;;;13.22;72.77;101741.91;5121893;27;20060;-86
2022/07/28 02:16:12;;;;;;;7.03;1.55;;;;;;;13.18;73.10;101744.19;5119332;27;20100;-86
2022/07/28 02:18:39;;;;;;;3.78;1.50;;;;;;;13.11;73.03;101735.19;5136396;27;20031;-86
2022/07/28 02:21:12;;;;;;;6.50;1.70;;;;;;;13.09;73.30;101740.00;5118081;27;20088;-86
2022/07/28 02:23:40;;;;;;;7.90;1.93;;;;;;;13.02;73.85;101744.63;5118950;27;20447;-86
2022/07/28 02:26:09;;;;;;;9.13;1.60;;;;;;;12.99;73.93;101741.28;5117315;27;20045;-86
2022/07/28 02:28:37;;;;;;;4.30;1.90;;;;;;;12.98;74.15;101727.88;5136349;27;20030;-86
2022/07/28 02:31:18;;;;;;;4.22;2.05;;;;;;;12.96;73.89;101725.34;5117871;27;20031;-86
2022/07/28 02:33:45;;;;;;;3.30;1.52;;;;;;;12.98;74.14;101730.59;5136966;27;20019;-86
2022/07/28 02:36:44;;;;;;;7.30;1.80;;;;;;;12.97;73.02;101743.34;5117468;27;20083;-86
2022/07/28 02:39:23;;;;;;;5.75;2.00;;;;;;;12.94;74.10;101740.22;5106166;27;20087;-86
2022/07/28 02:41:57;;;;;;;4.63;1.95;;;;;;;12.91;74.94;101732.47;5118600;27;20375;-86
2022/07/28 02:44:30;;;;;;;5.53;1.88;;;;;;;12.92;74.59;101742.34;5135868;27;20031;-86
2022/07/28 02:46:57;;;;;;;5.40;1.88;;;;;;;12.88;74.66;101733.72;5136653;27;20111;-86
2022/07/28 02:49:34;;;;;;;6.07;1.80;;;;;;;12.87;74.27;101729.31;5117598;27;20038;-86
2022/07/28 02:52:06;;;;;;;4.47;1.77;;;;;;;12.78;74.52;101733.31;5117662;27;20162;-86
2022/07/28 02:54:33;;;;;;;3.90;1.70;;;;;;;12.76;74.87;101730.78;5136040;27;20023;-85
2022/07/28 02:57:00;;;;;;;8.48;2.03;;;;;;;12.72;75.14;101739.59;5117008;27;20026;-86
2022/07/28 02:59:27;;;;;;;3.95;2.00;;;;;;;12.60;75.02;101732.03;5117332;27;20024;-86
2022/07/28 03:01:57;;;;;;;3.37;1.80;;;;;;;12.55;75.28;101731.81;5151347;27;20045;-86
2022/07/28 03:07:08;;;;;;;5.05;2.00;;;;;;;12.46;76.44;101731.16;5136272;27;20084;-86
2022/07/28 03:09:41;;;;;;;5.60;1.80;;;;;;;12.43;76.16;101725.28;5135653;27;20110;-86
2022/07/28 03:12:10;;;;;;;4.15;2.10;;;;;;;12.40;76.34;101725.69;5134690;27;20034;-86
2022/07/28 03:14:39;;;;;;;3.97;2.13;;;;;;;12.37;75.75;101723.41;5116850;27;20027;-86
2022/07/28 03:17:05;;;;;;;6.15;1.95;;;;;;;12.36;76.00;101730.72;5135114;27;20023;-86
2022/07/28 03:19:31;;;;;;;8.07;1.70;;;;;;;12.32;76.08;101734.91;5116672;27;20532;-86
2022/07/28 03:21:56;;;;;;;5.93;2.10;;;;;;;12.28;76.13;101729.03;5116563;27;20020;-86
2022/07/28 03:24:28;;;;;;;2.75;1.80;;;;;;;12.24;76.11;101732.38;5116876;27;20039;-86
2022/07/28 03:27:20;;;;;;;4.40;1.70;;;;;;;12.25;75.78;101742.19;5117993;27;20359;-86
2022/07/28 03:29:53;;;;;;;6.30;1.60;;;;;;;12.22;76.32;101732.59;5135427;27;20051;-86
2022/07/28 03:32:25;;;;;;;5.23;2.20;;;;;;;12.16;75.99;101736.09;5135493;27;20028;-86
2022/07/28 03:34:51;;;;;;;7.38;2.20;;;;;;;12.13;75.47;101732.97;5117558;27;20027;-86
2022/07/28 03:37:22;;;;;;;2.90;1.90;;;;;;;12.08;75.94;101736.31;5083600;27;20042;-86
2022/07/28 03:39:50;;;;;;;5.55;1.85;;;;;;;12.07;75.94;101745.50;5135174;27;20027;-86
2022/07/28 03:42:19;;;;;;;3.97;1.90;;;;;;;12.04;75.64;101738.56;5134755;27;20031;-86
2022/07/28 03:44:46;;;;;;;4.73;1.90;;;;;;;12.01;76.36;101738.16;5135335;27;20027;-86
2022/07/28 03:47:13;;;;;;;5.72;1.85;;;;;;;11.99;76.11;101732.06;5116879;27;20046;-86
2022/07/28 03:49:38;;;;;;;4.65;1.88;;;;;;;11.95;76.26;101728.91;5134911;27;20482;-86
2022/07/28 03:52:06;;;;;;;3.80;1.97;;;;;;;11.95;75.96;101728.09;5134785;27;20031;-86
2022/07/28 03:54:31;;;;;;;5.90;1.63;;;;;;;11.95;75.67;101725.38;5134860;27;20023;-86
2022/07/28 03:57:00;;;;;;;5.22;1.60;;;;;;;11.96;75.78;101727.03;5116185;28;20079;-86
2022/07/28 03:59:27;;;;;;;2.77;1.40;;;;;;;11.88;75.57;101720.69;5116447;27;20471;-85
2022/07/28 04:01:55;;;;;;;3.53;1.42;;;;;;;11.88;75.92;101726.13;5116453;27;20030;-85
2022/07/28 04:04:26;;;;;;;3.08;1.60;;;;;;;11.90;76.26;101729.50;5115938;27;20047;-86
2022/07/28 04:06:51;;;;;;;4.25;1.60;;;;;;;11.89;76.29;101727.00;5116528;28;20034;-86
2022/07/28 04:09:17;;;;;;;5.63;1.70;;;;;;;11.87;76.39;101726.34;5116346;28;20039;-86
2022/07/28 04:11:45;;;;;;;3.70;1.60;;;;;;;11.88;75.81;101725.31;5116140;28;20027;-86
2022/07/28 04:14:10;;;;;;;4.78;1.88;;;;;;;11.91;75.61;101730.34;5134582;28;20038;-86
2022/07/28 04:16:36;;;;;;;4.47;2.00;;;;;;;11.95;75.90;101734.38;5116502;28;20031;-86
2022/07/28 04:19:01;;;;;;;4.45;2.00;;;;;;;11.96;75.75;101730.63;5150545;27;20031;-86
2022/07/28 04:21:27;;;;;;;4.03;1.50;;;;;;;11.96;75.71;101727.03;5134419;28;20027;-86
2022/07/28 04:23:52;;;;;;;6.30;2.17;;;;;;;11.96;76.25;101727.88;5138057;27;20031;-86
2022/07/28 04:26:18;;;;;;;5.07;1.77;;;;;;;12.00;76.46;101734.59;5139031;27;20371;-86
2022/07/28 04:28:46;;;;;;;5.13;1.70;;;;;;;12.01;76.40;101733.53;5120316;27;20470;-86
2022/07/28 04:31:12;;;;;;;4.82;2.00;;;;;;;12.06;76.04;101722.91;5120780;27;20034;-86
2022/07/28 04:33:42;;;;;;;5.57;1.83;;;;;;;12.09;75.79;101727.09;5119974;27;20031;-86
2022/07/28 04:36:10;;;;;;;5.20;1.90;;;;;;;12.08;76.28;101720.81;5120615;27;20190;-86
2022/07/28 04:38:38;;;;;;;4.35;1.80;;;;;;;12.15;76.11;101731.72;5138860;27;20474;-86
2022/07/28 04:41:03;;;;;;;5.82;1.98;;;;;;;12.14;75.95;101726.50;5120512;27;20031;-86
2022/07/28 04:43:29;;;;;;;8.90;2.27;;;;;;;12.18;75.74;101731.31;5102767;27;20110;-86
2022/07/28 04:45:54;;;;;;;5.20;1.93;;;;;;;12.16;76.71;101717.06;5119959;27;20027;-86
2022/07/28 04:48:22;;;;;;;6.40;2.10;;;;;;;12.21;76.25;101722.75;5119856;27;20054;-86
2022/07/28 04:50:48;;;;;;;5.97;2.03;;;;;;;12.21;75.58;101720.03;5119842;27;20031;-86
2022/07/28 04:53:13;;;;;;;7.68;1.83;;;;;;;12.23;76.04;101720.63;5120045;27;20038;-85
2022/07/28 04:55:39;;;;;;;9.37;2.77;;;;;;;12.27;75.98;101718.38;5119837;27;20409;-86
2022/07/28 04:58:05;;;;;;;6.10;2.00;;;;;;;12.27;76.34;101724.63;5153865;27;20035;-86
2022/07/28 05:00:31;;;;;;;5.43;2.22;;;;;;;12.31;75.70;101730.50;5138133;27;20023;-86
2022/07/28 05:03:01;;;;;;;5.70;2.20;;;;;;;12.34;76.36;101727.38;5102913;27;20104;-85
2022/07/28 05:05:27;;;;;;;5.97;2.20;;;;;;;12.40;75.84;101726.56;5119597;27;20038;-86
2022/07/28 05:07:55;;;;;;;7.18;2.60;;;;;;;12.49;75.71;101726.34;5137989;27;20098;-86
2022/07/28 05:10:20;;;;;;;5.10;2.00;;;;;;;12.55;75.47;101728.25;5119720;27;20019;-84
2022/07/28 05:12:48;;;;;;;7.07;2.43;;;;;;;12.63;75.16;101733.50;5120280;27;20492;-83
2022/07/28 05:15:13;;;;;;;6.93;2.25;;;;;;;12.75;75.27;101726.38;5138316;27;20023;-83
2022/07/28 05:17:39;;;;;;;3.73;2.10;;;;;;;12.84;74.30;101737.06;5138027;27;20054;-83
2022/07/28 05:20:05;;;;;;;7.68;2.22;;;;;;;12.97;74.10;101737.91;5137746;27;20096;-83
2022/07/28 05:22:45;;;;;;;3.35;1.92;;;;;;;13.07;73.73;101737.50;5153583;27;20031;-82
2022/07/28 05:25:19;;;;;;;10.13;2.20;;;;;;;13.20;73.90;101739.38;5118891;27;20135;-83
2022/07/28 05:27:46;;;;;;;4.78;2.00;;;;;;;13.31;73.02;101737.91;5119497;27;20023;-83
2022/07/28 05:30:12;;;;;;;6.78;2.15;;;;;;;13.40;73.09;101739.38;5137308;27;20110;-83
2022/07/28 05:32:38;;;;;;;9.80;2.50;;;;;;;13.50;72.25;101739.78;5137137;27;20469;-83
2022/07/28 05:35:06;;;;;;;4.07;2.23;;;;;;;13.61;72.84;101738.28;5118404;27;20023;-83
2022/07/28 05:37:33;;;;;;;7.85;2.10;;;;;;;13.75;72.27;101746.44;5118947;27;20042;-83
2022/07/28 05:39:59;;;;;;;11.10;2.13;;;;;;;13.85;71.83;101730.47;5137314;27;20109;-84
2022/07/28 05:42:27;;;;;;;5.93;2.10;;;;;;;13.94;70.74;101731.88;5119296;27;20069;-84
2022/07/28 05:44:52;;;;;;;8.30;2.30;;;;;;;14.05;70.89;101727.63;5137624;27;20023;-83
2022/07/28 05:47:18;;;;;;;9.70;2.20;;;;;;;14.23;70.29;101735.09;5118712;27;20486;-83
2022/07/28 05:49:46;;;;;;;3.67;2.10;;;;;;;14.40;69.64;101727.22;5118708;27;20062;-83
2022/07/28 05:52:12;;;;;;;7.10;2.23;;;;;;;14.52;69.73;101730.91;5136703;27;20292;-83
2022/07/28 05:54:37;;;;;;;6.97;2.27;;;;;;;14.59;69.36;101730.06;5118197;27;20107;-83
2022/07/28 05:57:02;;;;;;;6.77;2.10;;;;;;;14.68;68.48;101734.22;5136980;27;20616;-83
2022/07/28 05:59:28;;;;;;;6.67;2.20;;;;;;;14.79;68.29;101732.66;5136472;27;20034;-83
2022/07/28 06:01:53;;;;;;;4.03;2.07;;;;;;;14.94;67.75;101737.81;5153099;27;20488;-83
2022/07/28 06:04:18;;;;;;;6.63;2.20;;;;;;;15.05;67.43;101732.44;5118277;27;20059;-83
2022/07/28 06:06:44;;;;;;;7.67;1.97;;;;;;;15.19;67.16;101735.91;5135412;27;20110;-83
2022/07/28 06:09:11;;;;;;;4.78;1.58;;;;;;;15.33;66.17;101738.50;5117791;27;20035;-83
2022/07/28 06:11:36;;;;;;;7.50;1.85;;;;;;;15.44;65.99;101730.41;5118099;27;20031;-83
2022/07/28 06:14:02;;;;;;;5.03;1.70;;;;;;;15.53;65.73;101722.75;5118096;27;20038;-83
2022/07/28 06:16:30;;;;;;;8.33;1.93;;;;;;;15.58;65.38;101727.53;5152605;27;20038;-83
2022/07/28 06:18:56;;;;;;;6.43;2.08;;;;;;;15.64;65.62;101725.78;5101863;27;20027;-83
2022/07/28 06:21:23;;;;;;;5.13;2.00;;;;;;;15.72;65.21;101728.19;5117962;27;20095;-83
2022/07/28 06:23:51;;;;;;;5.10;1.80;;;;;;;15.76;65.23;101718.47;5118145;27;20409;-83
2022/07/28 06:26:17;;;;;;;3.97;1.80;;;;;;;15.87;64.65;101725.09;5136219;27;20027;-83
2022/07/28 06:28:45;;;;;;;5.60;1.77;;;;;;;15.93;63.69;101722.28;5117900;27;20614;-83
2022/07/28 06:31:10;;;;;;;7.68;1.55;;;;;;;16.04;63.56;101719.84;5118698;27;20033;-84
2022/07/28 06:33:36;;;;;;;5.53;1.63;;;;;;;16.14;63.32;101726.44;5117510;27;20031;-84
2022/07/28 06:36:04;;;;;;;4.68;1.85;;;;;;;16.22;62.79;101725.25;5135719;27;20028;-83
2022/07/28 06:38:30;;;;;;;8.23;2.00;;;;;;;16.30;62.33;101727.69;5118478;27;20039;-84
2022/07/28 06:40:56;;;;;;;6.20;1.95;;;;;;;16.42;61.87;101727.72;5117431;27;20023;-83
2022/07/28 06:43:21;;;;;;;7.60;2.10;;;;;;;16.42;61.38;101732.38;5135596;27;20031;-83
2022/07/28 06:45:47;;;;;;;3.57;1.70;;;;;;;16.50;61.22;101729.28;5117255;27;20027;-83
2022/07/28 06:48:12;;;;;;;6.10;1.80;;;;;;;16.54;60.88;101730.50;5136282;27;20039;-83
2022/07/28 06:50:38;;;;;;;4.28;1.67;;;;;;;16.56;61.18;101722.88;5135842;27;20473;-83
2022/07/28 06:53:04;;;;;;;4.90;1.70;;;;;;;16.61;61.41;101727.69;5135811;27;20395;-84
2022/07/28 06:55:32;;;;;;;4.43;1.53;;;;;;;16.59;60.57;101733.38;5135865;27;20027;-83
2022/07/28 06:57:57;;;;;;;5.80;1.95;;;;;;;16.57;59.84;101732.78;5117195;27;20031;-84
2022/07/28 07:00:23;;;;;;;4.73;1.80;;;;;;;16.61;60.70;101733.97;5116993;27;20046;-84
2022/07/28 07:02:51;;;;;;;6.43;1.75;;;;;;;16.64;59.95;101735.44;5116719;27;20157;-83
2022/07/28 07:05:17;;;;;;;3.83;1.70;;;;;;;16.76;60.28;101732.72;5117186;27;20069;-83
2022/07/28 07:07:42;;;;;;;5.70;1.80;;;;;;;16.91;60.19;101737.78;5135612;27;20111;-83
2022/07/28 07:10:08;;;;;;;5.77;1.63;;;;;;;16.98;59.30;101730.28;5117167;27;20485;-84
2022/07/28 07:12:34;;;;;;;4.88;1.95;;;;;;;17.07;59.13;101733.50;5135291;27;20082;-84
2022/07/28 07:15:01;;;;;;;6.30;1.50;;;;;;;17.18;58.99;101736.25;5117658;27;20034;-84
2022/07/28 07:17:26;;;;;;;2.50;1.30;;;;;;;17.30;57.92;101733.50;5135459;27;20463;-83
2022/07/28 07:19:52;;;;;;;5.95;1.52;;;;;;;17.44;57.42;101722.28;5117166;27;20042;-83
2022/07/28 07:22:17;;;;;;;8.60;2.00;;;;;;;17.54;56.95;101728.81;5116740;27;20038;-83
2022/07/28 07:24:45;;;;;;;5.67;2.07;;;;;;;17.57;56.83;101727.50;5099979;27;20109;-83
2022/07/28 07:27:14;;;;;;;5.32;1.77;;;;;;;17.53;57.13;101735.38;5116814;27;20026;-83
2022/07/28 07:29:42;;;;;;;3.92;1.70;;;;;;;17.45;57.39;101732.16;5083105;27;20121;-83
2022/07/28 07:32:08;;;;;;;3.53;1.50;;;;;;;17.36;57.08;101728.94;5116975;27;20027;-83
2022/07/28 07:34:33;;;;;;;4.22;1.60;;;;;;;17.28;57.75;101737.56;5116854;27;20034;-83
2022/07/28 07:36:59;;;;;;;5.67;2.00;;;;;;;17.21;58.41;101725.88;5116387;27;20023;-83
2022/07/28 07:39:26;;;;;;;4.07;1.60;;;;;;;17.14;58.32;101729.56;5116428;27;20031;-83
2022/07/28 07:41:52;;;;;;;5.38;1.70;;;;;;;17.08;58.25;101727.78;5135545;27;20475;-84
2022/07/28 07:44:17;;;;;;;6.50;1.53;;;;;;;17.06;58.56;101726.34;5116431;27;20125;-83
2022/07/28 07:46:43;;;;;;;4.47;1.87;;;;;;;17.08;58.72;101718.69;5116567;27;20042;-83
2022/07/28 07:49:08;;;;;;;7.47;1.40;;;;;;;17.07;59.01;101717.88;5133223;27;20078;-84
2022/07/28 07:51:33;;;;;;;3.83;1.37;;;;;;;17.10;58.28;101724.81;5134780;27;20268;-84
2022/07/28 07:53:59;;;;;;;7.90;1.73;;;;;;;17.09;58.68;101725.88;5099431;27;20031;-84
2022/07/28 07:56:24;;;;;;;5.03;1.57;;;;;;;17.03;58.66;101721.34;5116213;27;20479;-83
2022/07/28 07:58:50;;;;;;;7.85;1.90;;;;;;;17.04;59.15;101715.59;5134094;27;20080;-83
2022/07/28 08:01:16;;;;;;;5.00;1.40;;;;;;;17.09;58.77;101721.19;5116162;27;20038;-84
2022/07/28 08:03:42;;;;;;;7.57;1.50;;;;;;;17.08;57.85;101715.97;5134950;27;20125;-83
2022/07/28 08:06:08;;;;;;;7.68;1.50;;;;;;;17.10;58.21;101717.41;5099693;27;20053;-83
2022/07/28 08:08:36;;;;;;;4.75;1.40;;;;;;;17.15;58.43;101713.94;5115654;28;20067;-83
2022/07/28 08:11:04;;;;;;;7.35;1.60;;;;;;;17.21;58.74;101707.50;5116701;28;20471;-83
2022/07/28 08:13:29;;;;;;;7.73;1.80;;;;;;;17.27;57.96;101712.03;5099438;28;20114;-83
2022/07/28 08:15:54;;;;;;;4.85;1.67;;;;;;;17.29;58.25;101706.31;5135288;28;20114;-83
2022/07/28 08:18:22;;;;;;;7.57;1.47;;;;;;;17.34;58.52;101709.16;5134928;28;20023;-83
2022/07/28 08:20:48;;;;;;;3.15;1.50;;;;;;;17.38;57.57;101713.09;5116108;28;20031;-84
2022/07/28 08:23:16;;;;;;;7.50;1.70;;;;;;;17.36;56.76;101713.34;5099780;28;20126;-83
2022/07/28 08:25:43;;;;;;;5.03;1.42;;;;;;;17.42;57.11;101708.81;5135054;28;20024;-83
2022/07/28 08:28:12;;;;;;;8.33;1.70;;;;;;;17.44;57.47;101705.81;5116488;28;20072;-84
2022/07/28 08:30:37;;;;;;;5.63;1.40;;;;;;;17.53;57.25;101707.94;5115688;28;20100;-83
2022/07/28 08:33:05;;;;;;;6.43;1.50;;;;;;;17.60;57.03;101705.06;5149971;27;20050;-83
2022/07/28 08:35:31;;;;;;;7.18;2.05;;;;;;;17.66;57.20;101714.25;5134434;28;20092;-83
2022/07/28 08:37:57;;;;;;;4.20;1.60;;;;;;;17.72;56.44;101710.53;5134280;28;20027;-83
2022/07/28 08:40:24;;;;;;;5.83;1.40;;;;;;;17.75;56.33;101696.31;5115672;28;20391;-83
2022/07/28 08:43:00;;;;;;;5.25;1.30;;;;;;;17.81;56.42;101700.84;5115841;28;20125;-83
2022/07/28 08:45:29;;;;;;;7.85;1.70;;;;;;;17.85;55.77;101709.44;5134947;28;20023;-83
2022/07/28 08:47:56;;;;;;;5.22;1.63;;;;;;;17.86;55.60;101697.34;5115514;28;20027;-83
2022/07/28 08:50:23;;;;;;;10.00;1.70;;;;;;;17.90;55.64;101700.50;5115546;28;20087;-83
2022/07/28 08:52:51;;;;;;;5.07;1.20;;;;;;;18.01;56.13;101703.19;5115987;28;20027;-83
2022/07/28 08:55:26;;;;;;;4.68;1.42;;;;;;;18.11;55.48;101707.22;5134774;28;20027;-83
2022/07/28 08:57:55;;;;;;;5.47;1.73;;;;;;;18.20;55.86;101700.25;5134415;28;20440;-84
2022/07/28 09:00:21;;;;;;;6.53;1.60;;;;;;;18.30;55.56;101694.94;5134253;27;20126;-83
2022/07/28 09:02:50;;;;;;;5.47;1.50;;;;;;;18.43;55.64;101685.56;5115297;28;20134;-83
2022/07/28 09:05:18;;;;;;;3.03;1.30;;;;;;;18.58;55.49;101688.56;5134132;28;20471;-84
2022/07/28 09:07:50;;;;;;;7.80;1.70;;;;;;;18.66;53.98;101679.09;5134433;28;20046;-83
2022/07/28 09:10:19;;;;;;;4.65;1.67;;;;;;;18.74;53.28;101683.34;5135749;27;20027;-84
2022/07/28 09:12:45;;;;;;;4.40;1.40;;;;;;;18.84;53.31;101671.66;5102627;27;20031;-83
2022/07/28 09:15:12;;;;;;;5.40;1.63;;;;;;;18.92;52.62;101669.34;5137550;27;20027;-84
2022/07/28 09:17:39;;;;;;;5.88;1.58;;;;;;;19.02;52.28;101668.69;5119140;27;20039;-84
2022/07/28 09:20:05;;;;;;;7.82;1.60;;;;;;;19.08;52.77;101662.16;5102509;27;20031;-84
2022/07/28 09:22:35;;;;;;;7.00;1.60;;;;;;;19.20;51.99;101662.06;5119833;27;20168;-83
2022/07/28 09:25:02;;;;;;;5.82;1.20;;;;;;;19.32;51.86;101664.69;5119139;27;20050;-83
2022/07/28 09:27:43;;;;;;;4.70;1.40;;;;;;;19.40;52.09;101656.00;5101985;27;20079;-83
2022/07/28 09:30:10;;;;;;;8.05;1.75;;;;;;;19.57;52.15;101658.69;5119871;27;20118;-83
2022/07/28 09:32:40;;;;;;;5.93;1.50;;;;;;;19.70;51.16;101642.88;5118863;27;20375;-83
2022/07/28 09:35:21;;;;;;;5.45;1.48;;;;;;;19.87;50.91;101643.66;5137122;27;20035;-83
2022/07/28 09:37:58;;;;;;;4.15;1.50;;;;;;;20.00;50.58;101634.13;5119342;27;20034;-84
2022/07/28 09:40:23;;;;;;;3.93;1.60;;;;;;;20.13;49.32;101627.38;5137810;27;20038;-84
2022/07/28 09:42:55;;;;;;;5.43;1.98;;;;;;;20.36;50.51;101636.41;5136993;27;20027;-83
2022/07/28 09:45:26;;;;;;;7.68;1.45;;;;;;;20.53;49.33;101636.28;5119909;27;20146;-84
2022/07/28 09:48:08;;;;;;;2.47;1.40;;;;;;;20.69;49.26;101635.34;5136993;27;20023;-83
2022/07/28 09:50:36;;;;;;;4.22;1.40;;;;;;;20.84;47.78;101638.19;5137335;27;20019;-84
2022/07/28 09:53:28;;;;;;;3.92;1.60;;;;;;;20.99;47.55;101636.63;5118999;27;20027;-84
2022/07/28 09:56:01;;;;;;;3.25;1.48;;;;;;;21.12;47.10;101647.19;5118791;27;20027;-83
2022/07/28 09:58:28;;;;;;;4.47;1.58;;;;;;;21.28;46.68;101645.34;5118223;27;20051;-84
2022/07/28 10:01:03;;;;;;;6.17;1.87;;;;;;;21.44;46.98;101637.97;5119094;27;20475;-84
2022/07/28 10:03:28;;;;;;;7.15;1.52;;;;;;;21.58;45.73;101632.78;5117914;27;20055;-83
2022/07/28 10:05:55;;;;;;;6.53;1.50;;;;;;;21.70;45.13;101644.47;5118433;27;20051;-84
2022/07/28 10:08:45;;;;;;;6.27;1.57;;;;;;;21.83;45.48;101631.22;5136751;27;20053;-84
2022/07/28 10:11:13;;;;;;;2.95;1.40;;;;;;;22.00;44.13;101634.59;5106500;27;20050;-84
2022/07/28 10:13:50;;;;;;;3.28;1.48;;;;;;;22.11;44.71;101635.41;5118160;27;20050;-83
2022/07/28 10:16:15;;;;;;;4.00;1.50;;;;;;;22.28;42.58;101635.16;5136650;27;20029;-84
2022/07/28 10:18:41;;;;;;;3.57;1.57;;;;;;;22.36;42.13;101631.06;5152331;27;20113;-84
2022/07/28 10:21:08;;;;;;;2.70;1.40;;;;;;;22.41;41.94;101626.34;5117955;27;20068;-84
2022/07/28 10:23:37;;;;;;;6.07;1.50;;;;;;;22.57;41.93;101623.56;5136476;27;20027;-84
2022/07/28 10:26:06;;;;;;;3.80;1.42;;;;;;;22.66;41.74;101621.06;5136394;27;20035;-83
2022/07/28 10:28:41;;;;;;;3.45;1.70;;;;;;;22.85;41.72;101630.44;5118647;27;20379;-84
2022/07/28 10:31:13;;;;;;;6.53;1.53;;;;;;;23.17;41.38;101606.34;5136681;27;20114;-83
2022/07/28 10:33:47;;;;;;;8.90;1.50;;;;;;;23.28;40.77;101616.25;5117771;27;20360;-84
2022/07/28 10:36:17;;;;;;;4.82;1.25;;;;;;;23.50;39.20;101620.59;5136351;27;20163;-84
2022/07/28 10:38:45;;;;;;;5.30;1.25;;;;;;;23.62;39.62;101613.63;5118557;27;20375;-84
2022/07/28 10:41:13;;;;;;;5.07;1.50;;;;;;;23.71;39.36;101611.06;5152007;27;20121;-84
2022/07/28 10:43:40;;;;;;;6.73;1.50;;;;;;;23.91;38.99;101612.91;5136151;27;20124;-83
2022/07/28 10:46:05;;;;;;;4.63;1.52;;;;;;;24.08;37.90;101620.84;5117996;27;20494;-84
2022/07/28 10:48:34;;;;;;;2.88;1.10;;;;;;;24.36;37.14;101607.31;5117396;27;20027;-83
2022/07/28 10:51:00;;;;;;;7.07;1.50;;;;;;;24.55;37.33;101612.94;5135567;27;20027;-84
2022/07/28 10:53:51;;;;;;;5.40;1.63;;;;;;;24.74;37.71;101604.75;5117484;27;20076;-84
2022/07/28 10:56:40;;;;;;;7.70;1.85;;;;;;;24.87;38.03;101608.78;5136141;27;20046;-84
2022/07/28 10:59:27;;;;;;;4.88;1.58;;;;;;;25.00;37.03;101605.31;5117794;27;20514;-84
2022/07/28 11:01:53;;;;;;;8.00;1.70;;;;;;;25.22;36.42;101606.72;5118110;27;20444;-84
2022/07/28 11:04:40;;;;;;;4.83;1.50;;;;;;;25.46;36.35;101605.91;5100279;27;20082;-84
2022/07/28 11:07:10;;;;;;;4.32;1.45;;;;;;;25.22;35.77;101590.88;5135625;27;20030;-84
2022/07/28 11:09:38;;;;;;;5.57;1.60;;;;;;;25.51;35.54;101603.03;5117987;27;20031;-84
2022/07/28 11:12:07;;;;;;;11.10;1.70;;;;;;;25.81;34.62;101595.44;5116590;27;20106;-84
2022/07/28 11:14:35;;;;;;;3.13;1.50;;;;;;;26.15;34.14;101594.38;5117740;27;20042;-84
2022/07/28 11:17:03;;;;;;;2.65;1.45;;;;;;;26.45;33.89;101587.44;5117608;27;20031;-84
2022/07/28 11:19:30;;;;;;;5.07;1.42;;;;;;;26.61;33.15;101574.06;5135482;27;20583;-84
2022/07/28 11:22:17;;;;;;;4.05;1.42;;;;;;;27.06;33.74;101571.56;5134944;27;20034;-84
2022/07/28 11:24:55;;;;;;;2.65;1.60;;;;;;;27.82;32.40;101575.75;5117500;27;20141;-83
2022/07/28 11:27:44;;;;;;;3.93;1.50;;;;;;;29.99;29.22;101579.00;5116716;27;20031;-84
2022/07/28 11:30:32;;;;;;;4.18;2.13;;;;;;;32.73;25.17;101570.19;5117104;27;20031;-84
2022/07/28 11:32:59;;;;;;;4.28;1.42;;;;;;;34.89;22.19;101566.06;5134251;27;20463;-83
2022/07/28 11:35:28;;;;;;;4.32;1.83;;;;;;;35.83;20.69;101570.97;5116620;27;20364;-84
2022/07/28 11:37:59;;;;;;;3.13;1.50;;;;;;;36.86;20.14;101562.78;5134860;27;20035;-84